Airfield :
LOGIN :

Register | Disclaimer

   EN    FR    IT 

 










Legend :    VFR   Marginal VFR   IFR   Intensive IFR   Very Intensive IFR
Visi :
Ceiling :
>= 8 km
>= 3000ft
5 to 8 km
1000 to 3000 ft
1500m to 5 km
500 to 1000 ft
800 to 1500m
200 to 500 ft
< 800m
< 200 ft
Symbols :   Thunderstorms  Fog  Heavy snow  Heavy precipitations  Wind > 20 kt
SIGMETs :     Misc.  Thunderstorms  Icing  Turbulence  Mountain Waves  Volcanic Ashes







- Airport Elevation : 171 ft
- IATA code : EGC
- Download approach charts


LFBE - Bergerac

CURRENT METAR :
  • 161930Z AUTO 27011KT 9999 FEW029 22/17 Q1018 NOSIG

EXPIRED METARs :
  • 161900Z AUTO 28012KT 9999 BKN031 OVC140 23/18 Q1018 NOSIG
  • 161830Z AUTO 29014KT 9999 FEW034 OVC140 24/17 Q1017 NOSIG
  • 161800Z AUTO 29016KT CAVOK 25/17 Q1017 NOSIG
  • 161730Z AUTO 29013KT 9999 FEW041 BKN140 OVC180 26/18 Q1016 NOSIG
  • 161700Z AUTO 29013KT CAVOK 26/18 Q1016 TEMPO 30015G30KT 4000 SHRA BKN040TCU

TAF TAF LFBE
Valid from the 16 at 12:00 until the 17 at 12:00 UTC


161100Z 1612/1712 28008KT 9999 SCT023 BKN100
TEMPO 1615/1618 30015G30KT 4000 SHRA BKN040TCU
BECMG 1622/1624 VRB02KT BKN013
BECMG 1702/1704 BKN023
No reported NOTAMs for that airfield.
2 SIGMETs reported for the Bordeaux FIR (LFBB) :
 
Embedded thunderstorms
LFBB SIGMET 18 VALID 161800/162000 LFPW
LFBB BORDEAUX FIR/UIR EMBD TS FCST WI N4630 W00015 - N4715 W00015 - N4715 E00030 - N4600 E00115 - N4545 E00000 - N4630 W00015 TOP FL330 MOV E 15KT NC=
Severe turbulence
LFBB SIGMET 16 VALID 161600/162000 LFPW
LFBB BORDEAUX FIR/UIR SEV TURB FCST WI N4315 E00245 - N4230 E00230 - N4300 E00215 - N4315 E00245 SFC/FL060 STNR NC=



MET'MAP, your aeronautical weather chart ! - Copyright ORBIFLY December 2007 - Disclaimer

ORBIFLY MET'MAP TEAM :

Programming & Development : Alexandra Zaïnal
Concept & Development : Baudouin d'Aumeries
Co-Development & Prog : Marc-Olivier Méhu
Technical & hardware support : Manuel Goepfert

Contact : metmap@orbifly.com




SOURCES & CREDITS :

   NOAA